Time;durP1;ratioP1;P1;durP2;ratioP2;P2;SDS_P1;SDS_P2;PMS_P1;PMS_P2;Temp;Humidity;BMP_temperature;BMP_pressure;BME280_temperature;BME280_humidity;BME280_pressure;Samples;Min_cycle;Max_cycle;Signal;HPM_P1;HPM_P2
2023/01/28 00:01:20;;;;;;;54.85;22.67;;;;;;;1.47;100.00;101144.34;5075126;28;20035;-69
2023/01/28 00:03:50;;;;;;;51.42;22.42;;;;;;;1.44;100.00;101133.91;5057169;28;20032;-72
2023/01/28 00:06:17;;;;;;;57.60;22.40;;;;;;;1.46;100.00;101142.72;5075712;28;20024;-71
2023/01/28 00:08:49;;;;;;;49.88;22.45;;;;;;;1.48;100.00;101140.31;5074946;28;20029;-69
2023/01/28 00:11:15;;;;;;;47.60;21.85;;;;;;;1.41;100.00;101137.53;5074249;28;20099;-72
2023/01/28 00:13:41;;;;;;;49.15;21.83;;;;;;;1.40;100.00;101142.34;5074079;28;20101;-70
2023/01/28 00:16:08;;;;;;;55.20;22.77;;;;;;;1.41;100.00;101135.53;5074052;28;20492;-70
2023/01/28 00:18:34;;;;;;;47.33;21.20;;;;;;;1.40;100.00;101138.75;5073008;28;20029;-72
2023/01/28 00:21:09;;;;;;;51.65;20.92;;;;;;;1.39;100.00;101140.78;5056451;28;20531;-69
2023/01/28 00:23:42;;;;;;;50.42;22.63;;;;;;;1.32;100.00;101134.34;5073724;28;20093;-69
2023/01/28 00:26:11;;;;;;;51.15;21.45;;;;;;;1.22;100.00;101130.38;5074242;28;20024;-69
2023/01/28 00:28:37;;;;;;;46.10;19.48;;;;;;;1.10;100.00;101135.66;5073694;28;20024;-71
2023/01/28 00:31:23;;;;;;;50.17;22.52;;;;;;;1.10;100.00;101127.22;5054648;28;20032;-71
2023/01/28 00:33:55;;;;;;;46.92;20.63;;;;;;;1.10;100.00;101125.22;5073963;28;20024;-70
2023/01/28 00:36:22;;;;;;;43.90;19.90;;;;;;;1.02;100.00;101129.25;5054427;28;20556;-70
2023/01/28 00:38:49;;;;;;;44.72;19.02;;;;;;;0.96;100.00;101123.25;5072150;28;20063;-71
2023/01/28 00:41:23;;;;;;;49.67;20.02;;;;;;;0.89;100.00;101126.09;5055782;28;20067;-70
2023/01/28 00:43:50;;;;;;;41.92;18.20;;;;;;;0.81;100.00;101132.16;5072247;28;20040;-69
2023/01/28 00:46:29;;;;;;;44.60;19.73;;;;;;;0.78;100.00;101130.94;5055597;28;20077;-70
2023/01/28 00:48:55;;;;;;;42.72;18.55;;;;;;;0.56;100.00;101106.91;5073022;28;20055;-70
2023/01/28 00:51:29;;;;;;;38.83;18.60;;;;;;;0.74;100.00;101132.16;5073393;28;20035;-70
2023/01/28 00:53:54;;;;;;;43.30;19.98;;;;;;;0.57;100.00;101123.34;5073271;28;20296;-69
2023/01/28 00:56:21;;;;;;;41.78;18.98;;;;;;;0.51;100.00;101104.50;5073379;28;20097;-69
2023/01/28 00:58:47;;;;;;;41.05;18.50;;;;;;;0.70;100.00;101128.56;5072977;28;20103;-69
2023/01/28 01:01:19;;;;;;;38.90;17.92;;;;;;;0.61;100.00;101114.91;5073460;28;20115;-69
2023/01/28 01:03:46;;;;;;;41.85;18.58;;;;;;;0.72;100.00;101129.75;5074118;28;20025;-67
2023/01/28 01:06:21;;;;;;;45.20;18.35;;;;;;;0.81;100.00;101127.31;5074200;28;20397;-68
2023/01/28 01:08:49;;;;;;;36.15;17.05;;;;;;;0.87;100.00;101128.50;5074396;28;20020;-68
2023/01/28 01:11:16;;;;;;;35.22;17.45;;;;;;;0.86;100.00;101112.81;5073998;28;20128;-69
2023/01/28 01:13:42;;;;;;;44.97;18.55;;;;;;;0.99;100.00;101136.50;5072560;28;20092;-68
2023/01/28 01:16:11;;;;;;;51.42;21.00;;;;;;;0.96;100.00;101128.88;5074065;28;20518;-67
2023/01/28 01:18:40;;;;;;;38.75;16.95;;;;;;;1.02;100.00;101140.50;5073869;28;20024;-69
2023/01/28 01:21:13;;;;;;;44.95;19.55;;;;;;;0.98;100.00;101139.72;5074012;28;20040;-68
2023/01/28 01:23:39;;;;;;;48.22;20.15;;;;;;;0.98;100.00;101136.91;5072526;28;20081;-68
2023/01/28 01:26:06;;;;;;;46.78;19.48;;;;;;;0.97;100.00;101146.56;5073627;28;20032;-69
2023/01/28 01:28:32;;;;;;;40.28;19.10;;;;;;;0.90;100.00;101147.41;5072603;28;20020;-69
2023/01/28 01:31:25;;;;;;;44.15;19.70;;;;;;;0.91;100.00;101145.38;5073820;28;20051;-69
2023/01/28 01:33:52;;;;;;;38.70;18.90;;;;;;;0.81;100.00;101135.75;5071238;28;20039;-69
2023/01/28 01:36:20;;;;;;;39.55;19.70;;;;;;;0.91;100.00;101145.38;5072218;28;20066;-68
2023/01/28 01:38:51;;;;;;;44.03;18.58;;;;;;;0.94;100.00;101151.00;5073101;28;20024;-68
2023/01/28 01:41:29;;;;;;;38.25;16.02;;;;;;;0.92;100.00;101149.78;5072123;28;20025;-69
2023/01/28 01:44:01;;;;;;;41.92;18.35;;;;;;;0.89;100.00;101144.97;5072243;28;20017;-69
2023/01/28 01:46:40;;;;;;;42.47;19.27;;;;;;;0.86;100.00;101162.69;5073519;28;20046;-68
2023/01/28 01:49:21;;;;;;;39.97;17.60;;;;;;;0.76;100.00;101167.13;5071605;28;20024;-68
2023/01/28 01:51:53;;;;;;;37.42;17.20;;;;;;;0.78;100.00;101177.94;5071898;28;20047;-69
2023/01/28 01:54:20;;;;;;;37.50;16.13;;;;;;;0.80;100.00;101175.53;5072269;28;20033;-69
2023/01/28 01:56:48;;;;;;;33.88;16.63;;;;;;;0.78;100.00;101173.13;5071935;28;20028;-69
2023/01/28 01:59:18;;;;;;;31.27;16.67;;;;;;;0.77;100.00;101177.13;5073148;28;20064;-69
2023/01/28 02:01:47;;;;;;;35.72;16.05;;;;;;;0.71;100.00;101155.47;5055194;28;20432;-69
2023/01/28 02:04:43;;;;;;;39.17;17.30;;;;;;;0.73;100.00;101167.91;5073244;28;20047;-69
2023/01/28 02:07:11;;;;;;;37.78;16.40;;;;;;;0.74;100.00;101179.97;5064035;28;20056;-70
2023/01/28 02:09:40;;;;;;;37.38;16.80;;;;;;;0.66;100.00;101167.13;5055337;28;20102;-69
2023/01/28 02:12:13;;;;;;;40.55;17.95;;;;;;;0.80;100.00;101183.97;5072859;28;20078;-69
2023/01/28 02:14:59;;;;;;;35.75;16.85;;;;;;;0.80;100.00;101167.91;5071931;28;20036;-69
2023/01/28 02:17:25;;;;;;;39.28;17.42;;;;;;;0.87;100.00;101175.50;5060954;28;20025;-69
2023/01/28 02:20:08;;;;;;;36.63;16.38;;;;;;;0.94;100.00;101183.94;5050846;28;20027;-70
2023/01/28 02:23:01;;;;;;;36.65;17.50;;;;;;;0.94;100.00;101181.13;5051744;28;20032;-71
2023/01/28 02:26:04;;;;;;;38.03;19.30;;;;;;;0.96;100.00;101182.31;5051776;28;20082;-70
2023/01/28 02:28:32;;;;;;;37.15;17.48;;;;;;;1.00;100.00;101187.97;5050516;28;20048;-70
2023/01/28 02:31:25;;;;;;;39.70;18.52;;;;;;;0.82;100.00;101187.97;5052126;28;20032;-70
2023/01/28 02:34:19;;;;;;;35.10;16.35;;;;;;;0.78;100.00;101183.56;5046819;28;20041;-71
2023/01/28 02:36:53;;;;;;;34.47;15.32;;;;;;;0.76;100.00;101189.63;5051391;28;20544;-69
2023/01/28 02:39:48;;;;;;;33.83;16.80;;;;;;;0.72;100.00;101188.00;5054438;28;20031;-70
2023/01/28 02:42:17;;;;;;;28.45;13.65;;;;;;;0.56;100.00;101186.44;5053912;28;20020;-68
2023/01/28 02:44:43;;;;;;;34.05;15.75;;;;;;;0.50;100.00;101187.22;5071833;28;20021;-68
2023/01/28 02:50:00;;;;;;;29.60;14.57;;;;;;;0.45;100.00;101190.44;5072002;28;20071;-71
2023/01/28 02:55:52;;;;;;;29.80;13.82;;;;;;;0.52;100.00;101187.59;5072017;28;20032;-68
2023/01/28 02:58:19;;;;;;;29.92;15.13;;;;;;;0.46;100.00;101190.03;5072917;28;20036;-70
2023/01/28 03:01:13;;;;;;;29.92;14.32;;;;;;;0.45;100.00;101180.00;5074955;28;20465;-70
2023/01/28 03:04:04;;;;;;;31.00;13.48;;;;;;;0.52;100.00;101187.59;5076664;28;20028;-70
2023/01/28 03:06:35;;;;;;;25.50;13.48;;;;;;;0.49;100.00;101182.81;5076690;28;20039;-69
2023/01/28 03:09:23;;;;;;;32.53;14.45;;;;;;;0.46;100.00;101192.84;5058657;28;20021;-70
2023/01/28 03:37:13;;;;;;;29.48;15.90;;;;;;;0.80;100.00;101181.16;5054941;28;20111;-68
2023/01/28 03:39:39;;;;;;;34.47;14.98;;;;;;;0.87;100.00;101196.00;5038439;28;20025;-68
2023/01/28 03:42:06;;;;;;;28.00;13.45;;;;;;;0.78;100.00;101184.38;5037967;28;20066;-69
2023/01/28 03:47:23;;;;;;;31.42;14.38;;;;;;;0.67;100.00;101188.41;5055887;28;20063;-69
2023/01/28 03:49:52;;;;;;;31.20;14.10;;;;;;;0.43;100.00;101151.47;5022067;28;20029;-69
2023/01/28 03:52:24;;;;;;;35.33;16.27;;;;;;;0.70;100.00;101182.78;5037921;28;20156;-70
2023/01/28 03:54:51;;;;;;;31.63;15.88;;;;;;;0.52;100.00;101151.06;5054358;28;20470;-68
2023/01/28 03:57:22;;;;;;;35.15;15.52;;;;;;;0.76;100.00;101188.81;5055672;28;20482;-68
2023/01/28 03:59:49;;;;;;;32.85;15.13;;;;;;;0.88;100.00;101202.44;5037920;28;20029;-68
2023/01/28 04:02:16;;;;;;;28.80;14.90;;;;;;;0.85;100.00;101197.63;5054317;28;20083;-69
2023/01/28 04:04:42;;;;;;;29.45;15.52;;;;;;;0.69;100.00;101183.19;5037389;28;20116;-68
2023/01/28 04:07:14;;;;;;;34.65;15.98;;;;;;;0.77;100.00;101196.81;5055814;28;20455;-69
2023/01/28 04:09:40;;;;;;;30.73;15.90;;;;;;;0.76;100.00;101197.25;5054305;28;20057;-68
2023/01/28 04:12:06;;;;;;;31.52;16.52;;;;;;;0.69;100.00;101192.44;5053862;28;20021;-68
2023/01/28 04:14:33;;;;;;;31.75;14.77;;;;;;;0.58;100.00;101194.44;5055497;28;20021;-68
2023/01/28 04:17:00;;;;;;;34.58;16.98;;;;;;;0.55;100.00;101206.50;5055218;28;20033;-69
2023/01/28 04:19:36;;;;;;;30.23;15.65;;;;;;;0.57;100.00;101204.88;5055176;28;20020;-69
2023/01/28 04:22:08;;;;;;;33.78;15.45;;;;;;;0.61;100.00;101205.69;5055380;28;20028;-68
2023/01/28 04:24:35;;;;;;;32.45;15.50;;;;;;;0.61;100.00;101202.88;5054404;28;20146;-70
2023/01/28 04:27:01;;;;;;;39.53;16.83;;;;;;;0.61;100.00;101205.69;5053920;28;20053;-70
2023/01/28 04:29:27;;;;;;;29.95;15.02;;;;;;;0.60;100.00;101215.34;5055144;28;20162;-70
2023/01/28 04:31:53;;;;;;;32.00;14.85;;;;;;;0.45;100.00;101202.50;5055167;28;20506;-70
2023/01/28 04:34:19;;;;;;;29.40;14.85;;;;;;;0.50;100.00;101210.53;5055123;28;20074;-69
2023/01/28 04:36:45;;;;;;;37.10;15.38;;;;;;;0.54;100.00;101211.31;5063377;28;20044;-69
2023/01/28 04:39:10;;;;;;;31.15;14.85;;;;;;;0.61;100.00;101216.94;5075263;28;20023;-70
2023/01/28 04:41:36;;;;;;;27.83;14.40;;;;;;;0.64;100.00;101226.59;5075038;28;20115;-69
2023/01/28 04:44:02;;;;;;;33.95;16.83;;;;;;;0.71;100.00;101225.78;5074611;28;20031;-71
2023/01/28 04:46:28;;;;;;;32.55;15.68;;;;;;;0.71;100.00;101231.41;5074635;28;20100;-70
2023/01/28 04:48:53;;;;;;;33.25;14.57;;;;;;;0.67;100.00;101230.59;5074847;28;20142;-68
2023/01/28 04:51:19;;;;;;;34.70;15.60;;;;;;;0.55;100.00;101229.00;5074562;28;20047;-69
2023/01/28 04:53:44;;;;;;;33.20;15.60;;;;;;;0.54;100.00;101225.38;5074723;28;20020;-68
2023/01/28 04:56:10;;;;;;;34.42;15.55;;;;;;;0.61;100.00;101222.56;5074405;28;20025;-69
2023/01/28 04:58:36;;;;;;;36.83;15.38;;;;;;;0.70;100.00;101238.22;5074628;28;20032;-69
2023/01/28 05:01:01;;;;;;;33.08;15.57;;;;;;;0.65;100.00;101233.00;5074636;28;20021;-68
2023/01/28 05:03:27;;;;;;;34.13;16.35;;;;;;;0.66;100.00;101243.88;5074644;28;20021;-70
2023/01/28 05:05:53;;;;;;;35.42;16.70;;;;;;;0.68;100.00;101240.63;5074070;28;20054;-70
2023/01/28 05:08:19;;;;;;;33.05;15.77;;;;;;;0.73;100.00;101240.22;5074521;28;20512;-69
2023/01/28 05:10:44;;;;;;;38.67;16.67;;;;;;;0.77;100.00;101236.22;5074165;28;20020;-69
2023/01/28 05:13:10;;;;;;;37.45;16.88;;;;;;;0.80;100.00;101241.03;5074220;28;20381;-69
2023/01/28 05:15:35;;;;;;;35.67;15.52;;;;;;;0.79;100.00;101242.25;5073235;28;20040;-69
2023/01/28 05:18:02;;;;;;;34.78;15.77;;;;;;;0.71;100.00;101237.03;5055749;28;20032;-70
2023/01/28 05:20:27;;;;;;;36.42;16.73;;;;;;;0.65;100.00;101236.63;5074293;28;20103;-69
2023/01/28 05:22:52;;;;;;;30.75;16.95;;;;;;;0.61;100.00;101238.66;5073603;28;20137;-70
2023/01/28 05:25:19;;;;;;;34.90;16.65;;;;;;;0.60;100.00;101240.66;5073915;28;20019;-69
2023/01/28 05:27:54;;;;;;;32.83;16.85;;;;;;;0.55;100.00;101243.88;5073904;28;20032;-69
2023/01/28 05:30:39;;;;;;;36.83;17.83;;;;;;;0.46;100.00;101225.78;5074045;28;20052;-69
2023/01/28 05:33:06;;;;;;;35.80;16.95;;;;;;;0.56;100.00;101242.66;5073524;28;20107;-69
2023/01/28 05:35:31;;;;;;;43.08;18.48;;;;;;;0.71;100.00;101259.53;5073580;28;20108;-71
2023/01/28 05:37:58;;;;;;;37.47;19.05;;;;;;;0.76;100.00;101265.56;5073491;28;20072;-68
2023/01/28 05:40:24;;;;;;;37.63;18.05;;;;;;;0.80;100.00;101259.94;5073578;28;20469;-68
2023/01/28 05:42:50;;;;;;;40.13;18.30;;;;;;;0.77;100.00;101253.09;5074130;28;20074;-68
2023/01/28 05:45:15;;;;;;;38.47;18.80;;;;;;;0.71;100.00;101257.53;5073482;28;20024;-68
2023/01/28 05:47:42;;;;;;;42.45;20.35;;;;;;;0.68;100.00;101257.50;5073457;28;20028;-68
2023/01/28 05:50:09;;;;;;;42.35;19.45;;;;;;;0.63;100.00;101252.28;5073599;28;20020;-67
2023/01/28 05:52:34;;;;;;;36.67;20.13;;;;;;;0.58;100.00;101245.84;5055525;28;20020;-69
2023/01/28 05:55:00;;;;;;;39.60;18.35;;;;;;;0.48;100.00;101229.78;5073431;28;20532;-67
2023/01/28 05:57:35;;;;;;;47.65;20.95;;;;;;;0.64;100.00;101262.34;5072333;28;20496;-68
2023/01/28 06:00:01;;;;;;;44.00;20.48;;;;;;;0.65;100.00;101256.31;5073326;28;20024;-72
2023/01/28 06:02:27;;;;;;;49.10;24.30;;;;;;;0.51;100.00;101240.25;5073666;28;20031;-71
2023/01/28 06:04:53;;;;;;;48.78;21.25;;;;;;;0.66;100.00;101260.75;5073317;28;20024;-71
2023/01/28 06:07:33;;;;;;;43.05;19.90;;;;;;;0.61;100.00;101258.31;5073275;28;20036;-72
2023/01/28 06:09:58;;;;;;;40.92;20.08;;;;;;;0.34;100.00;101257.09;5073288;28;20024;-72
2023/01/28 06:12:23;;;;;;;40.95;19.52;;;;;;;0.30;100.00;101271.13;5091819;28;20031;-73
2023/01/28 06:14:49;;;;;;;45.53;21.67;;;;;;;0.25;100.00;101274.34;5093006;28;20433;-71
2023/01/28 06:17:14;;;;;;;44.20;19.88;;;;;;;0.14;100.00;101254.66;5092970;28;20070;-72
2023/01/28 06:19:40;;;;;;;44.10;21.15;;;;;;;0.29;100.00;101271.53;5083489;28;20036;-72
2023/01/28 06:22:05;;;;;;;42.83;21.25;;;;;;;0.30;100.00;101262.72;5080819;28;20028;-73
2023/01/28 06:24:31;;;;;;;39.70;19.63;;;;;;;0.37;100.00;101275.97;5073382;28;20013;-71
2023/01/28 06:26:56;;;;;;;45.00;19.40;;;;;;;0.18;100.00;101289.19;5073196;28;20469;-71
2023/01/28 06:29:22;;;;;;;43.83;20.00;;;;;;;0.14;100.00;101287.56;5038843;28;20484;-72
2023/01/28 06:31:56;;;;;;;40.83;19.70;;;;;;;0.20;100.00;101276.75;5055168;28;20030;-71
2023/01/28 06:34:21;;;;;;;44.97;19.20;;;;;;;0.34;100.00;101285.19;5073227;28;20053;-72
2023/01/28 06:36:47;;;;;;;35.95;17.02;;;;;;;0.30;100.00;101290.00;5076863;28;20494;-71
2023/01/28 06:39:12;;;;;;;44.95;18.08;;;;;;;0.28;100.00;101293.22;5077297;28;20393;-72
2023/01/28 06:41:38;;;;;;;42.13;18.52;;;;;;;0.27;100.00;101294.41;5077047;28;20458;-73
2023/01/28 06:44:04;;;;;;;37.25;18.65;;;;;;;0.32;100.00;101299.63;5059441;28;20111;-69
2023/01/28 06:46:30;;;;;;;38.55;17.70;;;;;;;0.37;100.00;101301.28;5059248;28;20067;-68
2023/01/28 06:48:55;;;;;;;33.50;16.35;;;;;;;0.32;100.00;101304.47;5076442;28;20056;-68
2023/01/28 06:51:21;;;;;;;41.03;17.02;;;;;;;0.25;100.00;101296.03;5077040;28;20531;-69
2023/01/28 06:53:50;;;;;;;39.22;17.92;;;;;;;0.23;100.00;101304.84;5057817;28;20455;-69
2023/01/28 06:56:16;;;;;;;37.70;20.02;;;;;;;0.20;100.00;101305.66;5077160;28;20073;-69
2023/01/28 06:58:43;;;;;;;37.70;18.38;;;;;;;0.21;100.00;101315.69;5077779;28;20024;-69
2023/01/28 07:01:09;;;;;;;35.30;18.15;;;;;;;0.14;100.00;101316.47;5096695;28;20099;-69
2023/01/28 07:03:37;;;;;;;37.58;17.75;;;;;;;0.30;100.00;101315.31;5095591;28;20553;-71
2023/01/28 07:06:02;;;;;;;37.95;17.15;;;;;;;0.34;100.00;101313.31;5095832;28;20472;-73
2023/01/28 07:08:27;;;;;;;42.42;18.90;;;;;;;0.38;100.00;101322.53;5097083;28;20020;-75
2023/01/28 07:10:54;;;;;;;32.75;16.77;;;;;;;0.41;100.00;101328.19;5096021;28;20024;-74
2023/01/28 07:13:20;;;;;;;44.80;18.02;;;;;;;0.46;100.00;101330.63;5078538;28;20028;-75
2023/01/28 07:15:47;;;;;;;36.20;17.33;;;;;;;0.51;100.00;101335.84;5096683;28;20043;-74
2023/01/28 07:18:13;;;;;;;38.47;18.02;;;;;;;0.51;100.00;101335.84;5096600;28;20149;-77
2023/01/28 07:20:41;;;;;;;32.42;17.63;;;;;;;0.43;100.00;101344.63;5096526;28;20085;-76
2023/01/28 07:23:07;;;;;;;34.47;17.00;;;;;;;0.39;100.00;101350.25;5061713;28;20051;-76
2023/01/28 07:25:34;;;;;;;38.70;17.30;;;;;;;0.37;100.00;101351.88;5078232;28;20027;-77
2023/01/28 07:27:59;;;;;;;47.10;17.65;;;;;;;0.42;100.00;101351.47;5096648;28;20026;-74
2023/01/28 07:30:26;;;;;;;39.33;17.75;;;;;;;0.45;100.00;101354.31;5077648;28;20040;-74
2023/01/28 07:32:55;;;;;;;30.75;16.83;;;;;;;0.39;100.00;101350.25;5096173;28;20459;-76
2023/01/28 07:35:22;;;;;;;40.22;18.10;;;;;;;0.41;100.00;101356.31;5078390;28;20028;-75
2023/01/28 07:37:55;;;;;;;35.78;17.17;;;;;;;0.30;100.00;101327.34;5096111;28;20131;-74
2023/01/28 07:40:20;;;;;;;35.30;16.80;;;;;;;0.52;100.00;101351.50;5078173;28;20089;-74
2023/01/28 07:42:46;;;;;;;37.50;15.70;;;;;;;0.53;100.00;101343.88;5078344;28;20032;-74
2023/01/28 07:45:18;;;;;;;34.58;15.52;;;;;;;0.57;100.00;101345.47;5077637;28;20028;-73
2023/01/28 07:48:06;;;;;;;38.25;18.00;;;;;;;0.61;100.00;101343.47;5095926;28;20028;-74
2023/01/28 07:50:35;;;;;;;33.20;17.00;;;;;;;0.72;100.00;101349.09;5095368;28;20369;-74
2023/01/28 07:53:06;;;;;;;37.13;18.00;;;;;;;0.71;100.00;101344.72;5078505;28;20044;-75
2023/01/28 07:55:34;;;;;;;41.90;19.08;;;;;;;0.72;100.00;101343.50;5095985;28;20024;-75
2023/01/28 07:58:01;;;;;;;37.25;18.55;;;;;;;0.77;100.00;101340.28;5077559;28;20109;-74
2023/01/28 08:00:30;;;;;;;34.45;17.88;;;;;;;0.74;100.00;101343.91;5096173;28;20369;-75
2023/01/28 08:03:09;;;;;;;33.70;17.52;;;;;;;0.68;100.00;101355.94;5061142;28;20034;-75
2023/01/28 08:05:45;;;;;;;33.83;18.13;;;;;;;0.59;100.00;101345.88;5079469;28;20028;-76
2023/01/28 08:08:12;;;;;;;31.60;16.70;;;;;;;0.61;100.00;101360.34;5077733;28;20053;-77
2023/01/28 08:10:39;;;;;;;33.13;18.08;;;;;;;0.64;100.00;101360.75;5077239;28;20039;-76
2023/01/28 08:13:08;;;;;;;32.88;16.88;;;;;;;0.75;100.00;101350.34;5095590;28;20028;-76
2023/01/28 08:15:33;;;;;;;30.25;16.02;;;;;;;0.74;100.00;101355.16;5077723;28;20068;-76
2023/01/28 08:18:00;;;;;;;30.88;17.63;;;;;;;0.75;100.00;101356.78;5077487;28;20056;-79
2023/01/28 08:20:27;;;;;;;34.55;16.63;;;;;;;0.82;100.00;101359.56;5077297;28;20020;-76
2023/01/28 08:22:53;;;;;;;35.55;15.77;;;;;;;0.89;100.00;101364.41;5077570;28;20047;-75
2023/01/28 08:25:20;;;;;;;37.85;17.45;;;;;;;0.92;100.00;101367.22;5077241;28;20080;-77
2023/01/28 08:27:48;;;;;;;33.95;16.60;;;;;;;0.95;100.00;101366.44;5077812;28;20036;-75
2023/01/28 08:30:14;;;;;;;37.70;17.65;;;;;;;0.99;100.00;101364.41;5077662;28;20047;-76
2023/01/28 08:32:40;;;;;;;35.42;16.90;;;;;;;1.04;100.00;101368.84;5095235;28;20028;-77
2023/01/28 08:35:07;;;;;;;38.58;18.73;;;;;;;1.00;100.00;101365.22;5095565;28;20488;-75
2023/01/28 08:37:33;;;;;;;40.70;18.23;;;;;;;0.96;100.00;101364.44;5094991;28;20044;-75
2023/01/28 08:39:59;;;;;;;34.03;17.17;;;;;;;0.99;100.00;101361.59;5095729;28;20063;-75
2023/01/28 08:42:24;;;;;;;35.35;17.85;;;;;;;1.02;100.00;101363.59;5077103;28;20060;-76
2023/01/28 08:44:50;;;;;;;34.63;18.30;;;;;;;0.98;100.00;101362.00;5095162;28;20422;-76
2023/01/28 08:47:17;;;;;;;35.65;16.75;;;;;;;0.97;100.00;101366.00;5076941;28;20392;-78
2023/01/28 08:49:43;;;;;;;36.10;17.58;;;;;;;0.68;100.00;101336.25;5077492;28;20378;-75
2023/01/28 08:52:09;;;;;;;39.50;18.45;;;;;;;0.82;100.00;101368.00;5076783;28;20020;-80
2023/01/28 08:54:36;;;;;;;34.22;17.33;;;;;;;0.85;100.00;101361.59;5095085;28;20530;-77
2023/01/28 08:57:03;;;;;;;40.92;18.67;;;;;;;0.89;100.00;101365.22;5094180;28;20036;-78
2023/01/28 08:59:28;;;;;;;40.88;18.10;;;;;;;0.97;100.00;101361.19;5060899;28;20157;-78
2023/01/28 09:01:56;;;;;;;40.50;18.02;;;;;;;0.96;100.00;101368.03;5095034;28;20483;-79
2023/01/28 09:04:24;;;;;;;35.38;17.90;;;;;;;0.82;100.00;101361.56;5076895;28;20103;-81
2023/01/28 09:06:50;;;;;;;34.05;17.55;;;;;;;0.89;100.00;101355.97;5095056;28;20034;-80
2023/01/28 09:09:17;;;;;;;33.85;16.92;;;;;;;0.96;100.00;101358.81;5095028;28;20373;-79
2023/01/28 09:11:43;;;;;;;40.63;18.10;;;;;;;0.89;100.00;101367.22;5095022;28;20052;-79
2023/01/28 09:14:11;;;;;;;32.58;17.02;;;;;;;0.88;100.00;101369.22;5059814;28;20028;-80
2023/01/28 09:16:37;;;;;;;38.40;17.67;;;;;;;0.84;100.00;101376.06;5094932;28;20024;-80
2023/01/28 09:19:05;;;;;;;36.17;15.82;;;;;;;0.63;100.00;101359.13;5076437;28;20059;-80
2023/01/28 09:21:30;;;;;;;40.40;16.50;;;;;;;0.86;100.00;101365.22;5076835;28;20107;-79
2023/01/28 09:23:57;;;;;;;41.13;18.85;;;;;;;1.02;100.00;101372.06;5094246;28;20107;-78
2023/01/28 09:26:22;;;;;;;41.38;18.05;;;;;;;1.20;100.00;101377.69;5096294;28;20065;-81
2023/01/28 09:28:48;;;;;;;34.15;16.73;;;;;;;1.39;100.00;101382.91;5094685;28;20032;-81
2023/01/28 09:31:16;;;;;;;35.25;16.20;;;;;;;1.45;100.00;101372.84;5076570;28;20518;-79
2023/01/28 09:33:42;;;;;;;35.28;15.88;;;;;;;1.44;100.00;101382.50;5094327;28;20547;-80
2023/01/28 09:36:09;;;;;;;37.15;20.05;;;;;;;1.21;100.00;101382.09;5093861;28;20127;-80
2023/01/28 09:38:35;;;;;;;55.70;23.60;;;;;;;1.07;100.00;101384.91;5075961;28;20465;-81
2023/01/28 09:41:34;;;;;;;37.80;20.08;;;;;;;1.08;100.00;101382.91;5075483;28;20046;-80
2023/01/28 09:44:25;;;;;;;37.47;18.92;;;;;;;1.13;100.00;101391.75;5075931;28;20044;-80
2023/01/28 09:46:51;;;;;;;39.85;18.35;;;;;;;1.12;100.00;101398.59;5093983;28;20140;-79
2023/01/28 09:49:31;;;;;;;39.90;19.33;;;;;;;1.11;100.00;101391.34;5075878;28;20034;-79
2023/01/28 09:51:57;;;;;;;34.50;17.90;;;;;;;1.02;100.00;101407.81;5095185;28;20024;-77
2023/01/28 09:54:50;;;;;;;40.53;18.77;;;;;;;1.11;100.00;101394.16;5094033;28;20156;-78
2023/01/28 09:57:22;;;;;;;32.70;16.27;;;;;;;1.17;100.00;101401.00;5076002;28;20023;-79
2023/01/28 09:59:49;;;;;;;31.25;15.75;;;;;;;1.17;100.00;101391.75;5094516;28;20024;-76
2023/01/28 10:02:39;;;;;;;25.98;14.82;;;;;;;1.17;100.00;101394.56;5059120;28;20038;-79
2023/01/28 10:05:23;;;;;;;25.40;14.30;;;;;;;0.93;100.00;101388.53;5094104;28;20020;-77
2023/01/28 10:08:33;;;;;;;33.72;15.20;;;;;;;0.72;100.00;101393.31;5075803;28;20024;-76
2023/01/28 10:11:16;;;;;;;34.22;16.67;;;;;;;0.69;100.00;101397.72;5094955;28;20066;-77
2023/01/28 10:13:54;;;;;;;33.17;15.85;;;;;;;0.68;100.00;101406.56;5096638;28;20028;-79
2023/01/28 10:16:27;;;;;;;33.00;15.15;;;;;;;0.68;100.00;101406.56;5094445;28;20112;-78
2023/01/28 10:19:02;;;;;;;28.95;16.35;;;;;;;0.69;100.00;101402.56;5077226;28;20361;-77
2023/01/28 10:21:34;;;;;;;31.98;15.50;;;;;;;0.79;100.00;101396.16;5075810;28;20032;-79
2023/01/28 10:24:04;;;;;;;28.98;14.70;;;;;;;0.92;100.00;101398.16;5077041;28;20110;-76
2023/01/28 10:26:41;;;;;;;23.45;13.10;;;;;;;0.94;100.00;101390.16;5042798;28;20384;-76
2023/01/28 10:29:18;;;;;;;26.08;14.43;;;;;;;0.89;100.00;101395.34;5093910;28;20020;-76
2023/01/28 10:32:34;;;;;;;28.50;15.00;;;;;;;0.83;100.00;101394.94;5093623;28;20032;-75
2023/01/28 10:35:02;;;;;;;26.98;13.88;;;;;;;0.95;100.00;101400.19;5080933;28;20043;-73
2023/01/28 10:37:28;;;;;;;30.15;14.18;;;;;;;0.94;100.00;101397.78;5071702;28;20056;-75
2023/01/28 10:39:57;;;;;;;27.33;13.63;;;;;;;1.08;100.00;101394.16;5055461;28;20052;-76
2023/01/28 10:42:31;;;;;;;26.73;13.77;;;;;;;1.28;100.00;101386.94;5055546;28;20085;-75
2023/01/28 10:45:02;;;;;;;23.90;12.88;;;;;;;1.43;100.00;101396.97;5073373;28;20032;-76
2023/01/28 10:48:06;;;;;;;26.75;14.52;;;;;;;1.30;100.00;101390.97;5072222;28;20029;-74
2023/01/28 10:50:48;;;;;;;27.25;14.52;;;;;;;1.32;100.00;101394.16;5014591;28;20132;-74
2023/01/28 10:53:15;;;;;;;25.08;13.90;;;;;;;1.47;100.00;101392.16;5072498;28;20090;-76
2023/01/28 10:55:46;;;;;;;29.67;15.13;;;;;;;1.57;100.00;101393.34;5054669;28;20037;-77
2023/01/28 10:58:22;;;;;;;25.70;15.23;;;;;;;1.72;100.00;101390.09;5073271;28;20162;-77
2023/01/28 11:00:54;;;;;;;30.60;15.85;;;;;;;1.89;100.00;101388.47;5073054;28;20029;-78
2023/01/28 11:03:22;;;;;;;30.02;15.70;;;;;;;1.99;100.00;101384.81;5071712;28;20478;-76
2023/01/28 11:05:56;;;;;;;29.35;15.32;;;;;;;2.06;100.00;101389.59;5071506;28;20428;-73
2023/01/28 11:08:25;;;;;;;24.42;14.50;;;;;;;2.03;100.00;101387.59;5072779;28;20024;-76
2023/01/28 11:10:53;;;;;;;24.98;14.70;;;;;;;2.02;100.00;101388.81;5055056;28;20041;-76
2023/01/28 11:13:24;;;;;;;29.58;15.75;;;;;;;1.99;100.00;101390.44;5054975;28;20036;-76
2023/01/28 11:16:15;;;;;;;26.35;13.90;;;;;;;1.91;100.00;101388.84;5054979;28;20087;-76
2023/01/28 11:18:57;;;;;;;26.75;15.75;;;;;;;1.86;100.00;101390.06;5055362;28;20039;-77
2023/01/28 11:21:25;;;;;;;25.25;15.25;;;;;;;1.88;100.00;101387.66;5073690;28;20103;-78
2023/01/28 11:23:52;;;;;;;26.30;15.23;;;;;;;1.88;100.00;101386.84;5075216;28;20078;-77
2023/01/28 11:26:21;;;;;;;26.40;14.68;;;;;;;1.94;100.00;101375.97;5071333;28;20466;-77
2023/01/28 11:28:47;;;;;;;26.77;14.82;;;;;;;2.05;100.00;101373.91;5054854;28;20033;-77
2023/01/28 11:31:15;;;;;;;23.88;13.60;;;;;;;2.07;100.00;101372.28;5054279;28;20040;-78
2023/01/28 11:34:01;;;;;;;22.05;13.50;;;;;;;2.05;100.00;101368.25;5054150;28;20389;-78
2023/01/28 11:36:51;;;;;;;19.60;12.25;;;;;;;1.86;100.00;101375.97;5060938;28;20036;-76
2023/01/28 11:39:27;;;;;;;19.73;11.98;;;;;;;1.89;100.00;101372.34;5056219;28;20036;-77
2023/01/28 11:41:53;;;;;;;25.98;13.77;;;;;;;1.89;100.00;101374.38;5057567;28;20093;-76
2023/01/28 11:44:24;;;;;;;25.35;13.98;;;;;;;1.92;100.00;101374.34;5074276;28;20028;-78
2023/01/28 11:47:18;;;;;;;21.10;12.60;;;;;;;2.01;100.00;101381.56;5056825;28;20469;-76
2023/01/28 11:50:33;;;;;;;19.55;12.18;;;;;;;2.06;100.00;101384.78;5056867;28;20025;-77
2023/01/28 11:53:08;;;;;;;21.40;12.38;;;;;;;2.10;100.00;101384.75;5074954;28;20027;-76
2023/01/28 11:55:46;;;;;;;23.75;11.48;;;;;;;2.17;100.00;101384.72;5073044;28;20402;-77
2023/01/28 11:58:31;;;;;;;22.58;11.43;;;;;;;2.31;100.00;101379.84;5075621;28;20067;-77
2023/01/28 12:01:42;;;;;;;17.85;10.30;;;;;;;2.51;100.00;101380.13;5075910;28;20103;-78